createdAt,value
2018-12-23T00:02:13.143Z,97840.55
2018-12-23T00:04:42.324Z,97847.73
2018-12-23T00:07:11.427Z,97848.08
2018-12-23T00:09:40.617Z,97844.03
2018-12-23T00:12:09.917Z,97851.14
2018-12-23T00:14:39.127Z,97844.87
2018-12-23T00:17:08.218Z,97850.66
2018-12-23T00:19:37.990Z,97853.72
2018-12-23T00:22:07.306Z,97850.88
2018-12-23T00:24:36.580Z,97849.34
2018-12-23T00:27:05.709Z,97850.70
2018-12-23T00:29:35.012Z,97846.84
2018-12-23T00:32:04.723Z,97855.50
2018-12-23T00:34:33.939Z,97854.15
2018-12-23T00:37:03.124Z,97856.91
2018-12-23T00:39:32.065Z,97856.05
2018-12-23T00:42:00.990Z,97866.92
2018-12-23T00:44:30.262Z,97859.80
2018-12-23T00:46:59.989Z,97849.95
2018-12-23T00:49:29.290Z,97858.81
2018-12-23T00:51:58.606Z,97860.85
2018-12-23T00:54:27.891Z,97857.63
2018-12-23T00:56:57.089Z,97849.02
2018-12-23T00:59:26.078Z,97848.47
2018-12-23T01:01:55.595Z,97852.91
2018-12-23T01:04:24.781Z,97855.46
2018-12-23T01:06:54.098Z,97870.39
2018-12-23T01:09:23.432Z,97863.80
2018-12-23T01:11:52.545Z,97857.70
2018-12-23T01:14:21.877Z,97852.95
2018-12-23T01:16:51.474Z,97857.53
2018-12-23T01:19:20.682Z,97870.42
2018-12-23T01:21:49.786Z,97878.59
2018-12-23T01:24:18.871Z,97879.78
2018-12-23T01:26:48.181Z,97889.11
2018-12-23T01:29:17.222Z,97884.19
2018-12-23T01:31:46.345Z,97881.67
2018-12-23T01:34:15.546Z,97875.91
2018-12-23T01:36:44.516Z,97873.33
2018-12-23T01:39:13.842Z,97869.97
2018-12-23T01:41:42.975Z,97875.05
2018-12-23T01:44:12.334Z,97878.98
2018-12-23T01:46:41.438Z,97878.14
2018-12-23T01:49:10.640Z,97881.70
2018-12-23T01:51:39.822Z,97871.69
2018-12-23T01:54:08.718Z,97881.02
2018-12-23T01:56:37.702Z,97881.38
2018-12-23T01:59:07.206Z,97874.05
2018-12-23T02:01:36.502Z,97886.80
2018-12-23T02:04:05.818Z,97886.42
2018-12-23T02:06:35.105Z,97900.66
2018-12-23T02:09:05.293Z,97901.03
2018-12-23T02:11:34.740Z,97905.26
2018-12-23T02:14:05.614Z,97899.33
2018-12-23T02:16:34.865Z,97892.55
2018-12-23T02:19:04.070Z,97905.42
2018-12-23T02:21:33.250Z,97903.89
2018-12-23T02:24:02.222Z,97906.09
2018-12-23T02:26:31.442Z,97907.45
2018-12-23T02:29:00.541Z,97908.12
2018-12-23T02:31:29.829Z,97911.71
2018-12-23T02:33:59.048Z,97906.61
2018-12-23T02:36:28.333Z,97898.98
2018-12-23T02:38:57.733Z,97905.08
2018-12-23T02:41:31.736Z,97909.15
2018-12-23T02:43:58.494Z,97909.34
2018-12-23T02:46:27.571Z,97916.78
2018-12-23T02:48:56.994Z,97910.52
2018-12-23T02:51:26.081Z,97910.52
2018-12-23T02:53:55.282Z,97913.22
2018-12-23T02:56:24.470Z,97905.45
2018-12-23T02:58:54.038Z,97911.87
2018-12-23T03:01:23.259Z,97905.59
2018-12-23T03:03:52.483Z,97908.16
2018-12-23T03:06:21.778Z,97895.44
2018-12-23T03:08:51.637Z,97898.31
2018-12-23T03:11:20.981Z,97907.31
2018-12-23T03:13:50.285Z,97907.80
2018-12-23T03:16:19.585Z,97904.08
2018-12-23T03:18:48.781Z,97900.34
2018-12-23T03:21:18.178Z,97907.82
2018-12-23T03:23:48.246Z,97909.02
2018-12-23T03:26:17.493Z,97906.13
2018-12-23T03:28:46.599Z,97905.78
2018-12-23T03:31:15.559Z,97900.52
2018-12-23T03:33:44.887Z,97907.31
2018-12-23T03:36:15.264Z,97899.84
2018-12-23T03:38:44.658Z,97894.92
2018-12-23T03:41:14.005Z,97892.41
2018-12-23T03:43:55.793Z,97890.37
2018-12-23T03:46:25.055Z,97890.53
2018-12-23T03:48:54.450Z,97885.11
2018-12-23T03:51:23.650Z,97878.50
2018-12-23T03:53:53.055Z,97886.79
2018-12-23T03:56:22.973Z,97880.38
2018-12-23T03:58:52.214Z,97884.26
2018-12-23T04:01:21.573Z,97882.22
2018-12-23T04:03:50.678Z,97871.20
2018-12-23T04:06:24.402Z,97873.09
2018-12-23T04:08:51.727Z,97880.88
2018-12-23T04:11:20.942Z,97878.17
2018-12-23T04:13:50.226Z,97877.48
2018-12-23T04:16:19.540Z,97874.94
2018-12-23T04:18:48.830Z,97870.88
2018-12-23T04:21:18.632Z,97866.30
2018-12-23T04:23:48.251Z,97870.53
2018-12-23T04:26:17.549Z,97865.11
2018-12-23T04:28:46.964Z,97863.27
2018-12-23T04:31:16.338Z,97856.80
2018-12-23T04:33:45.641Z,97856.66
2018-12-23T04:36:15.637Z,97860.87
2018-12-23T04:38:45.049Z,97867.84
2018-12-23T04:41:14.169Z,97872.56
2018-12-23T04:43:43.492Z,97867.15
2018-12-23T04:46:12.853Z,97873.08
2018-12-23T04:48:42.149Z,97866.14
2018-12-23T04:51:12.062Z,97862.72
2018-12-23T04:53:41.571Z,97866.80
2018-12-23T04:56:10.777Z,97856.98
2018-12-23T04:58:40.153Z,97852.42
2018-12-23T05:01:09.482Z,97853.42
2018-12-23T05:03:42.877Z,97859.69
2018-12-23T05:06:10.310Z,97856.47
2018-12-23T05:08:39.418Z,97846.48
2018-12-23T05:11:08.541Z,97846.99
2018-12-23T05:13:37.821Z,97850.05
2018-12-23T05:16:07.117Z,97855.46
2018-12-23T05:18:37.042Z,97855.12
2018-12-23T05:21:06.373Z,97853.78
2018-12-23T05:23:35.817Z,97857.14
2018-12-23T05:26:04.862Z,97849.18
2018-12-23T05:28:34.207Z,97854.29
2018-12-23T05:31:03.719Z,97844.61
2018-12-23T05:33:33.661Z,97850.20
2018-12-23T05:36:02.697Z,97844.27
2018-12-23T05:38:32.070Z,97834.98
2018-12-23T05:41:01.534Z,97841.39
2018-12-23T05:43:30.793Z,97838.70
2018-12-23T05:46:00.173Z,97843.25
2018-12-23T05:48:29.934Z,97841.75
2018-12-23T05:50:59.249Z,97842.58
2018-12-23T05:53:28.649Z,97838.53
2018-12-23T05:55:56.639Z,97844.45
2018-12-23T05:58:25.913Z,97848.52
2018-12-23T06:00:55.829Z,97852.59
2018-12-23T06:03:25.846Z,97845.63
2018-12-23T06:05:55.146Z,97840.20
2018-12-23T06:08:24.373Z,97841.05
2018-12-23T06:10:53.622Z,97842.89
2018-12-23T06:13:22.732Z,97843.57
2018-12-23T06:15:52.445Z,97844.23
2018-12-23T06:18:21.738Z,97843.72
2018-12-23T06:20:50.941Z,97843.05
2018-12-23T06:23:20.191Z,97848.11
2018-12-23T06:25:49.521Z,97850.16
2018-12-23T06:28:18.737Z,97852.67
2018-12-23T06:30:48.325Z,97843.52
2018-12-23T06:33:17.613Z,97846.06
2018-12-23T06:35:46.954Z,97846.54
2018-12-23T06:38:16.162Z,97844.16
2018-12-23T06:40:45.313Z,97845.35
2018-12-23T06:43:15.029Z,97844.00
2018-12-23T06:45:44.433Z,97853.97
2018-12-23T06:48:13.560Z,97848.16
2018-12-23T06:50:42.811Z,97849.02
2018-12-23T06:53:12.025Z,97850.50
2018-12-23T06:55:41.222Z,97849.14
2018-12-23T06:58:10.933Z,97847.06
2018-12-23T07:00:40.982Z,97848.42
2018-12-23T07:03:10.350Z,97839.26
2018-12-23T07:05:39.554Z,97841.97
2018-12-23T07:08:08.954Z,97847.02
2018-12-23T07:10:38.233Z,97843.79
2018-12-23T07:13:08.097Z,97843.75
2018-12-23T07:15:37.468Z,97844.09
2018-12-23T07:18:06.646Z,97843.23
2018-12-23T07:20:35.837Z,97841.19
2018-12-23T07:23:05.166Z,97834.36
2018-12-23T07:25:34.446Z,97845.39
2018-12-23T07:28:04.278Z,97852.67
2018-12-23T07:30:33.657Z,97847.74
2018-12-23T07:33:02.969Z,97847.52
2018-12-23T07:35:32.274Z,97846.38
2018-12-23T07:38:01.244Z,97845.66
2018-12-23T07:40:30.569Z,97844.28
2018-12-23T07:43:00.265Z,97845.80
2018-12-23T07:45:29.580Z,97852.55
2018-12-23T07:47:58.761Z,97842.87
2018-12-23T07:50:28.084Z,97853.72
2018-12-23T07:52:57.351Z,97845.36
2018-12-23T07:55:27.189Z,97836.34
2018-12-23T07:57:56.569Z,97844.99
2018-12-23T08:00:25.781Z,97839.73
2018-12-23T08:02:55.354Z,97830.17
2018-12-23T08:05:24.623Z,97837.28
2018-12-23T08:07:53.974Z,97827.61
2018-12-23T08:10:23.797Z,97830.84
2018-12-23T08:12:53.207Z,97840.69
2018-12-23T08:15:22.492Z,97828.95
2018-12-23T08:17:51.700Z,97833.20
2018-12-23T08:20:21.078Z,97837.63
2018-12-23T08:22:50.399Z,97835.77
2018-12-23T08:25:20.723Z,97832.05
2018-12-23T08:27:49.889Z,97832.25
2018-12-23T08:30:19.157Z,97830.17
2018-12-23T08:32:48.510Z,97831.02
2018-12-23T08:35:17.639Z,97830.68
2018-12-23T08:37:47.514Z,97830.68
2018-12-23T08:40:16.698Z,97816.78
2018-12-23T08:42:46.038Z,97820.30
2018-12-23T08:45:15.301Z,97822.06
2018-12-23T08:47:44.610Z,97823.94
2018-12-23T08:50:13.918Z,97815.63
2018-12-23T08:52:43.605Z,97818.99
2018-12-23T08:55:12.846Z,97822.00
2018-12-23T08:57:43.274Z,97826.25
2018-12-23T09:00:15.147Z,97826.42
2018-12-23T09:02:44.606Z,97822.51
2018-12-23T09:05:13.833Z,97832.02
2018-12-23T09:07:43.625Z,97823.69
2018-12-23T09:10:12.805Z,97827.26
2018-12-23T09:12:42.735Z,97821.66
2018-12-23T09:15:12.045Z,97827.41
2018-12-23T09:17:41.237Z,97823.17
2018-12-23T09:20:10.498Z,97818.20
2018-12-23T09:22:40.214Z,97814.13
2018-12-23T09:25:09.625Z,97820.72
2018-12-23T09:27:39.278Z,97818.52
2018-12-23T09:30:09.634Z,97816.16
2018-12-23T09:32:39.076Z,97816.66
2018-12-23T09:35:08.858Z,97816.33
2018-12-23T09:37:38.087Z,97820.92
2018-12-23T09:40:08.427Z,97815.13
2018-12-23T09:42:37.834Z,97808.82
2018-12-23T09:45:07.440Z,97808.48
2018-12-23T09:47:36.707Z,97808.31
2018-12-23T09:50:06.680Z,97804.87
2018-12-23T09:52:36.449Z,97800.66
2018-12-23T09:55:06.041Z,97798.58
2018-12-23T09:57:35.518Z,97802.81
2018-12-23T10:00:04.754Z,97795.50
2018-12-23T10:02:34.681Z,97788.70
2018-12-23T10:05:04.791Z,97791.92
2018-12-23T10:07:34.133Z,97780.19
2018-12-23T10:10:03.473Z,97780.86
2018-12-23T10:12:32.873Z,97777.75
2018-12-23T10:15:02.231Z,97774.18
2018-12-23T10:17:31.600Z,97768.49
2018-12-23T10:20:01.569Z,97764.21
2018-12-23T10:22:30.966Z,97757.53
2018-12-23T10:25:00.093Z,97754.81
2018-12-23T10:27:29.667Z,97747.32
2018-12-23T10:29:58.876Z,97745.45
2018-12-23T10:32:28.479Z,97754.09
2018-12-23T10:34:57.726Z,97741.34
2018-12-23T10:37:27.098Z,97731.67
2018-12-23T10:39:56.427Z,97733.91
2018-12-23T10:42:25.645Z,97721.48
2018-12-23T10:44:55.025Z,97729.22
2018-12-23T10:47:24.770Z,97725.36
2018-12-23T10:49:54.140Z,97721.79
2018-12-23T10:52:23.501Z,97720.19
2018-12-23T10:54:52.692Z,97713.05
2018-12-23T10:57:21.784Z,97712.72
2018-12-23T10:59:51.069Z,97703.02
2018-12-23T11:02:20.485Z,97697.83
2018-12-23T11:04:49.798Z,97690.00
2018-12-23T11:07:19.072Z,97689.27
2018-12-23T11:09:49.573Z,97678.69
2018-12-23T11:12:18.739Z,97662.55
2018-12-23T11:14:48.221Z,97659.80
2018-12-23T11:17:18.022Z,97657.77
2018-12-23T11:19:47.358Z,97644.88
2018-12-23T11:22:16.513Z,97644.17
2018-12-23T11:24:45.825Z,97634.69
2018-12-23T11:27:15.156Z,97623.16
2018-12-23T11:29:44.422Z,97621.42
2018-12-23T11:32:14.433Z,97620.20
2018-12-23T11:34:43.772Z,97607.27
2018-12-23T11:37:13.149Z,97615.95
2018-12-23T11:39:42.386Z,97613.34
2018-12-23T11:42:11.738Z,97617.30
2018-12-23T11:44:41.572Z,97607.90
2018-12-23T11:47:10.828Z,97606.47
2018-12-23T11:49:39.974Z,97603.38
2018-12-23T11:52:09.369Z,97591.25
2018-12-23T11:54:38.810Z,97583.94
2018-12-23T11:57:08.365Z,97576.43
2018-12-23T11:59:38.041Z,97573.05
2018-12-23T12:02:15.088Z,97574.41
2018-12-23T12:04:38.908Z,97578.48
2018-12-23T12:07:08.201Z,97579.34
2018-12-23T12:09:37.424Z,97581.73
2018-12-23T12:12:07.315Z,97574.12
2018-12-23T12:14:36.493Z,97566.91
2018-12-23T12:17:06.772Z,97563.86
2018-12-23T12:19:36.658Z,97562.50
2018-12-23T12:22:06.046Z,97556.02
2018-12-23T12:24:35.165Z,97555.61
2018-12-23T12:27:05.276Z,97546.69
2018-12-23T12:29:34.558Z,97537.44
2018-12-23T12:32:03.919Z,97541.52
2018-12-23T12:34:33.154Z,97540.41
2018-12-23T12:37:02.364Z,97533.61
2018-12-23T12:39:31.565Z,97531.55
2018-12-23T12:42:02.310Z,97522.22
2018-12-23T12:44:31.590Z,97522.72
2018-12-23T12:47:00.789Z,97524.73
2018-12-23T12:49:30.368Z,97519.30
2018-12-23T12:51:59.697Z,97515.94
2018-12-23T12:54:28.893Z,97516.34
2018-12-23T12:56:58.696Z,97513.95
2018-12-23T12:59:27.778Z,97507.06
2018-12-23T13:01:57.091Z,97508.94
2018-12-23T13:04:27.432Z,97511.32
2018-12-23T13:06:57.126Z,97509.88
2018-12-23T13:09:26.326Z,97498.38
2018-12-23T13:11:56.143Z,97488.02
2018-12-23T13:14:25.269Z,97484.98
2018-12-23T13:16:54.618Z,97480.55
2018-12-23T13:19:24.399Z,97474.93
2018-12-23T13:21:53.733Z,97456.59
2018-12-23T13:24:22.929Z,97458.80
2018-12-23T13:26:53.033Z,97453.49
2018-12-23T13:29:22.748Z,97451.10
2018-12-23T13:31:52.770Z,97454.25
2018-12-23T13:34:23.416Z,97450.36
2018-12-23T13:36:52.625Z,97442.30
2018-12-23T13:39:22.329Z,97439.42
2018-12-23T13:42:09.088Z,97438.20
2018-12-23T13:44:52.417Z,97438.86
2018-12-23T13:47:36.783Z,97430.19
2018-12-23T13:50:24.140Z,97431.97
2018-12-23T13:53:09.525Z,97425.55
2018-12-23T13:57:56.786Z,97414.75
2018-12-23T14:00:37.121Z,97404.20
2018-12-23T14:03:13.981Z,97395.33
2018-12-23T14:05:54.965Z,97388.77
2018-12-23T14:13:11.326Z,97386.84
2018-12-23T14:15:41.173Z,97361.55
2018-12-23T14:18:10.832Z,97349.54
2018-12-23T14:20:40.169Z,97338.84
2018-12-23T14:23:09.502Z,97335.05
2018-12-23T14:25:38.914Z,97334.54
2018-12-23T14:28:08.184Z,97337.06
2018-12-23T14:30:37.695Z,97330.81
2018-12-23T14:33:07.253Z,97331.85
2018-12-23T14:35:37.025Z,97325.14
2018-12-23T14:38:07.649Z,97318.67
2018-12-23T14:40:37.138Z,97312.42
2018-12-23T14:43:06.493Z,97323.17
2018-12-23T14:45:35.897Z,97320.35
2018-12-23T14:48:05.934Z,97311.64
2018-12-23T14:50:35.161Z,97299.72
2018-12-23T14:53:06.297Z,97285.59
2018-12-23T14:55:35.753Z,97268.55
2018-12-23T14:58:05.413Z,97255.92
2018-12-23T15:00:35.651Z,97255.20
2018-12-23T15:03:05.009Z,97263.05
2018-12-23T15:05:34.025Z,97283.55
2018-12-23T15:08:03.127Z,97269.01
2018-12-23T15:10:32.701Z,97268.17
2018-12-23T15:13:01.913Z,97262.42
2018-12-23T15:15:34.390Z,97259.06
2018-12-23T15:18:03.326Z,97260.03
2018-12-23T15:20:32.498Z,97245.70
2018-12-23T15:23:01.849Z,97243.38
2018-12-23T15:25:31.101Z,97233.78
2018-12-23T15:28:00.374Z,97232.94
2018-12-23T15:30:29.757Z,97217.34
2018-12-23T15:32:58.957Z,97201.78
2018-12-23T15:35:28.304Z,97209.18
2018-12-23T15:37:57.449Z,97202.88
2018-12-23T15:40:26.769Z,97199.56
2018-12-23T15:42:56.070Z,97202.21
2018-12-23T15:45:25.965Z,97204.23
2018-12-23T15:47:55.968Z,97190.44
2018-12-23T15:50:26.300Z,97203.84
2018-12-23T15:52:56.610Z,97197.06
2018-12-23T15:55:26.057Z,97194.45
2018-12-23T15:57:55.443Z,97201.28
2018-12-23T16:00:25.518Z,97207.77
2018-12-23T16:02:56.524Z,97199.28
2018-12-23T16:05:26.793Z,97182.55
2018-12-23T16:07:56.225Z,97156.68
2018-12-23T16:10:25.517Z,97157.00
2018-12-23T16:12:54.749Z,97158.69
2018-12-23T16:15:25.013Z,97151.36
2018-12-23T16:17:54.429Z,97138.80
2018-12-23T16:20:24.277Z,97142.03
2018-12-23T16:22:53.557Z,97144.45
2018-12-23T16:25:22.861Z,97135.34
2018-12-23T16:27:52.234Z,97122.14
2018-12-23T16:30:22.717Z,97136.52
2018-12-23T16:32:52.113Z,97129.78
2018-12-23T16:35:22.000Z,97133.07
2018-12-23T16:37:51.481Z,97114.84
2018-12-23T16:40:20.850Z,97110.97
2018-12-23T16:42:50.130Z,97102.88
2018-12-23T16:45:19.479Z,97106.44
2018-12-23T16:47:48.790Z,97097.43
2018-12-23T16:50:18.725Z,97103.98
2018-12-23T16:52:48.066Z,97089.00
2018-12-23T16:55:17.999Z,97087.32
2018-12-23T16:57:47.405Z,97092.97
2018-12-23T17:00:17.013Z,97084.59
2018-12-23T17:02:46.045Z,97076.54
2018-12-23T17:05:19.136Z,97082.30
2018-12-23T17:07:48.454Z,97078.22
2018-12-23T17:10:18.043Z,97073.41
2018-12-23T17:12:47.385Z,97070.14
2018-12-23T17:15:17.253Z,97063.45
2018-12-23T17:17:46.553Z,97057.05
2018-12-23T17:20:16.612Z,97054.23
2018-12-23T17:22:46.760Z,97050.56
2018-12-23T17:25:16.097Z,97045.83
2018-12-23T17:27:46.186Z,97042.70
2018-12-23T17:30:15.513Z,97026.77
2018-12-23T17:32:46.193Z,97025.52
2018-12-23T17:35:15.793Z,97015.98
2018-12-23T17:37:45.037Z,97021.75
2018-12-23T17:40:16.581Z,97024.56
2018-12-23T17:42:45.790Z,97041.34
2018-12-23T17:45:14.998Z,97036.30
2018-12-23T17:47:44.853Z,97026.03
2018-12-23T17:50:14.057Z,97022.47
2018-12-23T17:52:43.287Z,97024.38
2018-12-23T17:55:12.486Z,97017.75
2018-12-23T17:57:42.124Z,97021.75
2018-12-23T18:00:11.958Z,97026.35
2018-12-23T18:02:41.499Z,97031.17
2018-12-23T18:05:10.813Z,97031.80
2018-12-23T18:07:39.996Z,97021.02
2018-12-23T18:10:09.238Z,97025.83
2018-12-23T18:12:38.693Z,97036.11
2018-12-23T18:15:08.322Z,97037.68
2018-12-23T18:17:38.754Z,97040.91
2018-12-23T18:20:09.053Z,97030.66
2018-12-23T18:22:38.287Z,97026.88
2018-12-23T18:25:07.691Z,97026.95
2018-12-23T18:27:37.046Z,97018.78
2018-12-23T18:30:06.747Z,97014.17
2018-12-23T18:32:35.861Z,97010.83
2018-12-23T18:35:05.311Z,97026.34
2018-12-23T18:37:34.642Z,97025.19
2018-12-23T18:40:03.968Z,97020.78
2018-12-23T18:42:33.371Z,97014.19
2018-12-23T18:45:02.566Z,97018.67
2018-12-23T18:47:32.007Z,97014.17
2018-12-23T18:50:01.445Z,97009.56
2018-12-23T18:52:31.364Z,96995.83
2018-12-23T18:55:00.661Z,96996.34
2018-12-23T18:57:33.596Z,96994.59
2018-12-23T19:00:03.344Z,97000.44
2018-12-23T19:02:40.470Z,97013.96
2018-12-23T19:05:09.842Z,96996.33
2018-12-23T19:07:40.305Z,96998.77
2018-12-23T19:11:21.630Z,96996.65
2018-12-23T19:16:09.882Z,97003.98
2018-12-23T19:25:01.427Z,97007.33
2018-12-23T19:29:45.589Z,96985.92
2018-12-23T19:32:37.441Z,96993.89
2018-12-23T19:39:22.894Z,96992.22
2018-12-23T19:42:09.131Z,96997.77
2018-12-23T19:45:55.411Z,97012.31
2018-12-23T19:50:45.202Z,97019.97
2018-12-23T19:53:32.564Z,97013.16
2018-12-23T19:56:46.378Z,97019.23
2018-12-23T19:59:54.100Z,97019.23
2018-12-23T20:03:01.883Z,97014.52
2018-12-23T20:06:09.856Z,97012.11
2018-12-23T20:09:17.642Z,97009.45
2018-12-23T20:12:25.629Z,96998.03
2018-12-23T20:15:33.663Z,96998.03
2018-12-23T20:18:41.441Z,97009.35
2018-12-23T20:21:48.940Z,97021.83
2018-12-23T20:24:56.527Z,97020.99
2018-12-23T20:28:04.085Z,97018.48
2018-12-23T20:31:12.266Z,97032.22
2018-12-23T20:34:38.752Z,97032.22
2018-12-23T20:37:37.541Z,97034.42
2018-12-23T20:41:07.612Z,97027.70
2018-12-23T20:44:15.519Z,97029.14
2018-12-23T20:47:37.876Z,97029.14
2018-12-23T20:50:33.218Z,97034.28
2018-12-23T20:53:34.374Z,97051.27
2018-12-23T20:56:42.089Z,97054.45
2018-12-23T20:59:49.737Z,97047.70
2018-12-23T21:02:57.712Z,97065.64
2018-12-23T21:09:35.328Z,97085.25
2018-12-23T21:12:43.227Z,97085.25
2018-12-23T21:19:27.883Z,97089.27
2018-12-23T21:22:35.737Z,97111.60
2018-12-23T21:25:43.529Z,97111.78
2018-12-23T21:28:59.042Z,97111.78
2018-12-23T21:32:06.735Z,97110.36
2018-12-23T21:38:30.908Z,97114.85
2018-12-23T21:41:39.016Z,97114.85
2018-12-23T21:44:46.818Z,97112.34
2018-12-23T21:47:54.355Z,97109.85
2018-12-23T21:54:40.400Z,97118.45
2018-12-23T21:57:49.900Z,97116.03
2018-12-23T22:00:57.682Z,97129.45
2018-12-23T22:03:38.441Z,97129.45
2018-12-23T22:06:19.488Z,97155.64
2018-12-23T22:09:00.186Z,97175.56
2018-12-23T22:11:41.236Z,97187.61
2018-12-23T22:14:50.129Z,97187.61
2018-12-23T22:17:38.600Z,97197.63
2018-12-23T22:20:47.663Z,97199.02
2018-12-23T22:23:49.104Z,97204.67
2018-12-23T22:26:27.538Z,97230.97
2018-12-23T22:36:01.374Z,97224.11
2018-12-23T22:38:42.632Z,97227.53
2018-12-23T22:41:52.972Z,97227.53
2018-12-23T22:45:01.885Z,97235.19
2018-12-23T22:48:10.771Z,97243.65
2018-12-23T22:50:59.354Z,97253.62
2018-12-23T22:54:07.412Z,97277.27
2018-12-23T22:57:16.356Z,97277.27
2018-12-23T23:03:24.990Z,97297.00
2018-12-23T23:09:45.806Z,97294.24
2018-12-23T23:12:44.988Z,97294.02
2018-12-23T23:15:14.096Z,97294.02
2018-12-23T23:21:01.787Z,97312.27
2018-12-23T23:29:56.017Z,97324.17
2018-12-23T23:32:44.162Z,97325.11
2018-12-23T23:35:32.706Z,97347.06
2018-12-23T23:38:02.124Z,97347.06
2018-12-23T23:43:33.178Z,97354.24
2018-12-23T23:46:02.371Z,97352.12
2018-12-23T23:49:11.083Z,97367.78
2018-12-23T23:51:59.650Z,97376.21
2018-12-23T23:54:48.119Z,97376.21
2018-12-23T23:57:56.970Z,97377.11
